createdAt,value
2023-01-25T00:01:12.266Z,56.59
2023-01-25T00:03:39.324Z,56.46
2023-01-25T00:06:06.489Z,56.36
2023-01-25T00:08:33.750Z,56.28
2023-01-25T00:11:01.784Z,56.66
2023-01-25T00:13:28.884Z,56.35
2023-01-25T00:16:05.163Z,56.46
2023-01-25T00:18:36.167Z,56.27
2023-01-25T00:21:18.071Z,56.48
2023-01-25T00:23:45.455Z,56.17
2023-01-25T00:26:12.427Z,56.04
2023-01-25T00:28:39.572Z,56.20
2023-01-25T00:31:08.022Z,56.25
2023-01-25T00:33:38.077Z,55.95
2023-01-25T00:36:25.010Z,55.90
2023-01-25T00:38:54.455Z,55.64
2023-01-25T00:41:21.430Z,55.42
2023-01-25T00:43:48.374Z,55.61
2023-01-25T00:46:17.215Z,55.99
2023-01-25T00:48:46.025Z,55.45
2023-01-25T00:51:13.108Z,55.18
2023-01-25T00:53:40.157Z,55.46
2023-01-25T00:56:07.468Z,55.15
2023-01-25T00:58:34.476Z,55.46
2023-01-25T01:01:01.506Z,55.17
2023-01-25T01:03:29.740Z,55.23
2023-01-25T01:06:06.921Z,55.29
2023-01-25T01:08:36.859Z,55.23
2023-01-25T01:11:06.831Z,55.04
2023-01-25T01:13:34.981Z,54.92
2023-01-25T01:16:05.079Z,54.89
2023-01-25T01:18:37.513Z,55.04
2023-01-25T01:21:04.857Z,55.25
2023-01-25T01:23:32.661Z,54.98
2023-01-25T01:26:01.512Z,54.73
2023-01-25T01:28:30.081Z,55.25
2023-01-25T01:31:24.557Z,55.64
2023-01-25T01:34:04.170Z,55.20
2023-01-25T01:36:31.502Z,55.32
2023-01-25T01:39:00.056Z,55.81
2023-01-25T01:41:27.429Z,55.38
2023-01-25T01:43:54.824Z,55.34
2023-01-25T01:46:23.844Z,55.19
2023-01-25T01:48:58.227Z,55.45
2023-01-25T01:51:36.236Z,55.37
2023-01-25T01:54:26.602Z,55.11
2023-01-25T01:57:08.780Z,55.29
2023-01-25T01:59:52.462Z,55.97
2023-01-25T02:02:19.879Z,55.36
2023-01-25T02:04:49.444Z,55.02
2023-01-25T02:07:16.790Z,56.05
2023-01-25T02:09:48.152Z,58.03
2023-01-25T02:12:16.424Z,58.62
2023-01-25T02:14:49.177Z,58.14
2023-01-25T02:17:30.498Z,57.11
2023-01-25T02:20:38.942Z,55.35
2023-01-25T02:23:40.699Z,54.60
2023-01-25T02:26:08.250Z,53.66
2023-01-25T02:28:45.000Z,53.31
2023-01-25T02:31:11.986Z,53.54
2023-01-25T02:33:39.012Z,53.70
2023-01-25T02:36:08.972Z,53.53
2023-01-25T02:38:44.096Z,52.01
2023-01-25T02:41:25.857Z,52.10
2023-01-25T02:43:53.044Z,52.15
2023-01-25T02:46:29.282Z,52.35
2023-01-25T02:48:57.703Z,52.13
2023-01-25T02:51:27.063Z,51.49
2023-01-25T02:53:55.992Z,51.76
2023-01-25T02:56:24.149Z,51.23
2023-01-25T02:58:51.128Z,51.47
2023-01-25T03:01:20.553Z,51.51
2023-01-25T03:03:47.730Z,51.71
2023-01-25T03:06:14.725Z,52.06
2023-01-25T03:08:44.042Z,52.09
2023-01-25T03:11:11.109Z,51.97
2023-01-25T03:13:38.820Z,52.04
2023-01-25T03:16:09.233Z,51.86
2023-01-25T03:18:37.682Z,51.76
2023-01-25T03:21:09.741Z,51.81
2023-01-25T03:23:37.499Z,51.79
2023-01-25T03:26:07.386Z,51.88
2023-01-25T03:28:34.813Z,51.75
2023-01-25T03:31:02.957Z,51.57
2023-01-25T03:33:30.277Z,51.44
2023-01-25T03:35:58.927Z,50.94
2023-01-25T03:38:28.671Z,50.81
2023-01-25T03:40:57.479Z,51.14
2023-01-25T03:43:25.434Z,50.59
2023-01-25T03:46:01.154Z,50.23
2023-01-25T03:48:30.075Z,50.71
2023-01-25T03:50:59.501Z,51.46
2023-01-25T03:53:30.051Z,51.96
2023-01-25T03:56:08.730Z,52.13
2023-01-25T03:58:38.650Z,52.95
2023-01-25T04:01:07.974Z,53.05
2023-01-25T04:03:35.503Z,52.75
2023-01-25T04:06:02.680Z,52.47
2023-01-25T04:08:31.576Z,53.18
2023-01-25T04:11:05.724Z,54.36
2023-01-25T04:13:35.419Z,53.69
2023-01-25T04:16:12.060Z,54.53
2023-01-25T04:19:14.027Z,53.79
2023-01-25T04:21:43.077Z,54.42
2023-01-25T04:24:10.034Z,54.24
2023-01-25T04:26:42.670Z,54.40
2023-01-25T04:29:10.885Z,54.68
2023-01-25T04:31:38.528Z,54.42
2023-01-25T04:34:06.312Z,55.02
2023-01-25T04:36:33.413Z,54.78
2023-01-25T04:39:00.539Z,54.26
2023-01-25T04:41:29.433Z,54.43
2023-01-25T04:43:57.399Z,53.95
2023-01-25T04:46:25.286Z,53.50
2023-01-25T04:48:53.913Z,53.40
2023-01-25T04:51:21.402Z,53.25
2023-01-25T04:53:48.500Z,53.65
2023-01-25T04:56:15.658Z,53.44
2023-01-25T04:58:52.219Z,53.69
2023-01-25T05:01:19.421Z,53.77
2023-01-25T05:03:46.492Z,54.05
2023-01-25T05:06:34.069Z,53.61
2023-01-25T05:09:01.343Z,53.44
2023-01-25T05:11:28.343Z,53.78
2023-01-25T05:14:02.193Z,53.67
2023-01-25T05:16:32.974Z,54.21
2023-01-25T05:19:00.720Z,53.83
2023-01-25T05:22:00.740Z,54.08
2023-01-25T05:24:36.739Z,53.93
2023-01-25T05:27:09.076Z,53.57
2023-01-25T05:29:54.991Z,53.79
2023-01-25T05:32:40.601Z,53.57
2023-01-25T05:35:08.684Z,53.62
2023-01-25T05:37:36.179Z,53.72
2023-01-25T05:40:08.695Z,53.50
2023-01-25T05:42:38.381Z,53.21
2023-01-25T05:45:11.209Z,53.02
2023-01-25T05:47:39.915Z,53.08
2023-01-25T05:50:08.803Z,53.08
2023-01-25T05:52:57.483Z,53.15
2023-01-25T05:55:24.738Z,53.11
2023-01-25T05:57:56.484Z,53.20
2023-01-25T06:00:23.988Z,52.99
2023-01-25T06:02:51.129Z,53.34
2023-01-25T06:05:22.697Z,53.19
2023-01-25T06:07:49.913Z,53.08
2023-01-25T06:10:18.642Z,53.00
2023-01-25T06:12:49.122Z,52.62
2023-01-25T06:15:17.080Z,52.84
2023-01-25T06:17:44.724Z,52.76
2023-01-25T06:20:26.092Z,52.86
2023-01-25T06:23:05.485Z,53.33
2023-01-25T06:25:32.469Z,53.38
2023-01-25T06:27:59.421Z,52.83
2023-01-25T06:30:26.361Z,52.91
2023-01-25T06:32:53.311Z,53.01
2023-01-25T06:35:21.141Z,53.27
2023-01-25T06:37:49.364Z,52.99
2023-01-25T06:40:16.730Z,52.92
2023-01-25T06:42:43.726Z,52.95
2023-01-25T06:45:11.485Z,53.07
2023-01-25T06:47:38.651Z,53.04
2023-01-25T06:50:06.088Z,52.71
2023-01-25T06:52:36.555Z,52.66
2023-01-25T06:55:08.568Z,52.59
2023-01-25T06:57:35.908Z,52.24
2023-01-25T07:00:03.046Z,52.24
2023-01-25T07:02:29.995Z,51.94
2023-01-25T07:04:56.909Z,51.99
2023-01-25T07:07:23.828Z,51.42
2023-01-25T07:09:50.757Z,51.21
2023-01-25T07:12:19.727Z,51.01
2023-01-25T07:14:49.730Z,50.62
2023-01-25T07:17:16.845Z,50.58
2023-01-25T07:19:43.805Z,50.54
2023-01-25T07:22:10.783Z,50.01
2023-01-25T07:24:37.708Z,50.07
2023-01-25T07:27:04.711Z,49.86
2023-01-25T07:29:31.863Z,49.49
2023-01-25T07:31:58.772Z,49.28
2023-01-25T07:34:25.936Z,49.10
2023-01-25T07:36:52.900Z,49.18
2023-01-25T07:39:19.887Z,49.11
2023-01-25T07:41:46.894Z,48.33
2023-01-25T07:44:17.747Z,48.02
2023-01-25T07:46:47.601Z,47.41
2023-01-25T07:49:14.710Z,47.08
2023-01-25T07:51:41.747Z,46.24
2023-01-25T07:54:12.378Z,44.57
2023-01-25T07:56:40.687Z,43.97
2023-01-25T07:59:08.516Z,44.29
2023-01-25T08:01:37.119Z,43.34
2023-01-25T08:04:05.175Z,43.50
2023-01-25T08:06:39.420Z,43.20
2023-01-25T08:09:11.019Z,43.34
2023-01-25T08:11:38.621Z,43.52
2023-01-25T08:14:05.778Z,43.30
2023-01-25T08:16:32.915Z,43.31
2023-01-25T08:19:01.624Z,43.58
2023-01-25T08:21:32.334Z,43.15
2023-01-25T08:24:00.819Z,43.41
2023-01-25T08:26:31.570Z,42.91
2023-01-25T08:28:59.599Z,42.77
2023-01-25T08:31:30.086Z,42.73
2023-01-25T08:33:57.801Z,42.03
2023-01-25T08:36:24.984Z,42.05
2023-01-25T08:38:57.849Z,39.62
2023-01-25T08:41:26.164Z,36.63
2023-01-25T08:43:55.166Z,35.37
2023-01-25T08:46:24.903Z,33.33
2023-01-25T08:48:58.114Z,30.83
2023-01-25T08:51:26.300Z,29.20
2023-01-25T08:53:53.577Z,28.43
2023-01-25T08:56:21.189Z,27.91
2023-01-25T08:58:50.209Z,26.88
2023-01-25T09:01:19.930Z,26.74
2023-01-25T09:03:49.829Z,25.65
2023-01-25T09:06:17.790Z,24.79
2023-01-25T09:08:44.842Z,24.34
2023-01-25T09:11:14.660Z,22.75
2023-01-25T09:13:43.780Z,22.94
2023-01-25T09:16:16.138Z,21.50
2023-01-25T09:18:44.964Z,22.14
2023-01-25T09:21:14.362Z,21.74
2023-01-25T09:23:50.954Z,21.07
2023-01-25T09:26:32.461Z,20.71
2023-01-25T09:28:59.697Z,20.32
2023-01-25T09:31:27.941Z,19.67
2023-01-25T09:34:19.104Z,19.17
2023-01-25T09:36:46.091Z,18.58
2023-01-25T09:39:13.584Z,18.05
2023-01-25T09:41:52.710Z,18.12
2023-01-25T09:44:26.297Z,17.38
2023-01-25T09:47:04.942Z,17.42
2023-01-25T09:49:56.186Z,17.35
2023-01-25T09:52:51.072Z,17.28
2023-01-25T09:55:19.217Z,17.87
2023-01-25T09:57:50.134Z,17.91
2023-01-25T10:00:32.113Z,16.63
2023-01-25T10:03:11.252Z,17.42
2023-01-25T10:05:48.474Z,16.76
2023-01-25T10:08:57.388Z,16.06
2023-01-25T10:11:30.876Z,16.94
2023-01-25T10:13:59.107Z,15.96
2023-01-25T10:16:51.246Z,16.43
2023-01-25T10:19:39.711Z,16.02
2023-01-25T10:22:28.955Z,16.04
2023-01-25T10:24:59.751Z,16.38
2023-01-25T10:27:45.433Z,16.15
2023-01-25T10:30:55.853Z,16.09
2023-01-25T10:33:22.988Z,17.05
2023-01-25T10:35:50.560Z,15.40
2023-01-25T10:38:26.053Z,14.43
2023-01-25T10:41:02.718Z,15.79
2023-01-25T10:43:30.716Z,15.66
2023-01-25T10:45:57.639Z,16.62
2023-01-25T10:48:30.050Z,16.67
2023-01-25T10:50:57.879Z,16.39
2023-01-25T10:53:32.255Z,16.88
2023-01-25T10:56:11.171Z,16.35
2023-01-25T10:58:41.209Z,15.81
2023-01-25T11:01:25.649Z,15.89
2023-01-25T11:03:52.571Z,16.64
2023-01-25T11:06:39.039Z,15.86
2023-01-25T11:09:33.729Z,15.70
2023-01-25T11:12:15.508Z,15.44
2023-01-25T11:14:42.895Z,16.75
2023-01-25T11:17:26.436Z,15.35
2023-01-25T11:20:20.674Z,17.37
2023-01-25T11:22:56.557Z,15.89
2023-01-25T11:25:34.589Z,15.56
2023-01-25T11:28:23.297Z,15.31
2023-01-25T11:30:54.029Z,16.15
2023-01-25T11:33:22.493Z,16.29
2023-01-25T11:36:16.836Z,17.13
2023-01-25T11:39:03.595Z,17.80
2023-01-25T11:41:44.059Z,18.55
2023-01-25T11:44:47.951Z,19.56
2023-01-25T11:47:33.287Z,20.29
2023-01-25T11:50:16.828Z,20.40
2023-01-25T11:53:20.976Z,20.55
2023-01-25T11:55:55.554Z,21.15
2023-01-25T11:58:53.670Z,21.51
2023-01-25T12:01:23.554Z,21.32
2023-01-25T12:04:21.309Z,22.75
2023-01-25T12:07:30.820Z,22.21
2023-01-25T12:10:40.578Z,22.77
2023-01-25T12:13:39.471Z,23.80
2023-01-25T12:16:29.551Z,23.98
2023-01-25T12:19:13.530Z,23.12
2023-01-25T12:21:43.256Z,23.19
2023-01-25T12:24:47.711Z,23.53
2023-01-25T12:27:23.300Z,23.24
2023-01-25T12:30:00.740Z,22.92
2023-01-25T12:32:40.360Z,23.42
2023-01-25T12:35:59.282Z,24.22
2023-01-25T12:38:58.444Z,23.93
2023-01-25T12:41:34.006Z,23.98
2023-01-25T12:44:12.416Z,24.47
2023-01-25T12:46:39.316Z,23.62
2023-01-25T12:49:15.155Z,24.36
2023-01-25T12:51:44.544Z,23.71
2023-01-25T12:54:28.657Z,24.16
2023-01-25T12:57:19.745Z,24.63
2023-01-25T13:00:07.153Z,24.95
2023-01-25T13:02:37.107Z,25.12
2023-01-25T13:05:51.208Z,25.48
2023-01-25T13:08:38.830Z,24.94
2023-01-25T13:11:22.753Z,24.85
2023-01-25T13:13:49.827Z,24.73
2023-01-25T13:16:38.662Z,24.65
2023-01-25T13:19:29.369Z,25.10
2023-01-25T13:22:00.629Z,25.09
2023-01-25T13:24:34.933Z,25.05
2023-01-25T13:27:26.274Z,25.04
2023-01-25T13:29:59.133Z,25.31
2023-01-25T13:32:26.641Z,25.52
2023-01-25T13:34:53.539Z,25.42
2023-01-25T13:37:24.866Z,25.87
2023-01-25T13:40:33.576Z,26.11
2023-01-25T13:43:05.398Z,26.25
2023-01-25T13:45:38.628Z,26.42
2023-01-25T13:48:09.126Z,26.77
2023-01-25T13:50:48.941Z,26.46
2023-01-25T13:53:15.813Z,26.88
2023-01-25T13:55:54.306Z,26.36
2023-01-25T13:58:38.870Z,26.03
2023-01-25T14:01:14.495Z,26.14
2023-01-25T14:03:44.812Z,26.00
2023-01-25T14:06:20.799Z,26.15
2023-01-25T14:08:49.082Z,26.49
2023-01-25T14:11:21.313Z,26.88
2023-01-25T14:14:16.635Z,25.92
2023-01-25T14:16:44.078Z,26.04
2023-01-25T14:19:25.232Z,26.17
2023-01-25T14:22:20.130Z,25.98
2023-01-25T14:25:02.253Z,26.39
2023-01-25T14:27:29.368Z,25.99
2023-01-25T14:29:56.472Z,26.31
2023-01-25T14:32:26.592Z,26.30
2023-01-25T14:34:53.530Z,26.31
2023-01-25T14:37:22.368Z,26.57
2023-01-25T14:39:52.288Z,26.81
2023-01-25T14:42:20.678Z,28.05
2023-01-25T14:44:48.474Z,28.44
2023-01-25T14:47:23.983Z,29.62
2023-01-25T14:49:50.999Z,30.13
2023-01-25T14:52:20.700Z,29.56
2023-01-25T14:54:54.720Z,30.71
2023-01-25T14:57:39.752Z,30.48
2023-01-25T15:00:17.571Z,29.78
2023-01-25T15:02:55.270Z,29.42
2023-01-25T15:05:28.005Z,29.22
2023-01-25T15:07:57.614Z,29.54
2023-01-25T15:10:33.330Z,29.34
2023-01-25T15:13:14.633Z,29.39
2023-01-25T15:15:56.699Z,29.14
2023-01-25T15:18:45.343Z,28.74
2023-01-25T15:21:33.855Z,29.36
2023-01-25T15:24:06.596Z,29.35
2023-01-25T15:26:36.058Z,29.43
2023-01-25T15:29:14.157Z,29.14
2023-01-25T15:31:42.079Z,29.36
2023-01-25T15:34:18.105Z,29.61
2023-01-25T15:36:45.143Z,29.49
2023-01-25T15:39:16.746Z,29.48
2023-01-25T15:41:44.528Z,29.80
2023-01-25T15:44:12.170Z,29.84
2023-01-25T15:46:41.812Z,29.90
2023-01-25T15:49:16.925Z,29.88
2023-01-25T15:51:43.979Z,29.98
2023-01-25T15:54:10.909Z,29.74
2023-01-25T15:56:40.409Z,29.88
2023-01-25T15:59:13.728Z,30.15
2023-01-25T16:01:40.732Z,30.03
2023-01-25T16:04:10.528Z,29.96
2023-01-25T16:06:50.236Z,30.12
2023-01-25T16:09:21.619Z,29.78
2023-01-25T16:11:51.635Z,30.04
2023-01-25T16:14:19.326Z,29.81
2023-01-25T16:16:52.461Z,30.26
2023-01-25T16:19:22.225Z,30.41
2023-01-25T16:21:49.522Z,30.49
2023-01-25T16:24:17.117Z,30.45
2023-01-25T16:26:49.970Z,30.80
2023-01-25T16:29:16.954Z,31.04
2023-01-25T16:31:43.917Z,31.11
2023-01-25T16:34:10.911Z,31.28
2023-01-25T16:36:39.647Z,31.06
2023-01-25T16:39:19.587Z,31.09
2023-01-25T16:41:47.543Z,31.19
2023-01-25T16:44:20.430Z,31.19
2023-01-25T16:46:51.238Z,31.14
2023-01-25T16:49:24.551Z,31.19
2023-01-25T16:51:51.822Z,31.49
2023-01-25T16:54:23.599Z,31.49
2023-01-25T16:56:52.156Z,31.82
2023-01-25T16:59:20.134Z,31.97
2023-01-25T17:01:47.142Z,32.30
2023-01-25T17:04:14.994Z,32.30
2023-01-25T17:06:45.371Z,32.46
2023-01-25T17:09:25.450Z,32.95
2023-01-25T17:11:54.301Z,32.92
2023-01-25T17:14:22.093Z,33.18
2023-01-25T17:16:51.793Z,33.41
2023-01-25T17:19:19.751Z,33.50
2023-01-25T17:21:47.005Z,33.92
2023-01-25T17:24:16.589Z,33.97
2023-01-25T17:26:43.955Z,34.57
2023-01-25T17:29:11.395Z,35.06
2023-01-25T17:31:39.870Z,34.95
2023-01-25T17:34:08.720Z,34.93
2023-01-25T17:36:35.684Z,35.63
2023-01-25T17:39:07.301Z,35.58
2023-01-25T17:41:34.590Z,35.71
2023-01-25T17:44:01.624Z,36.02
2023-01-25T17:46:33.176Z,36.46
2023-01-25T17:49:02.303Z,36.64
2023-01-25T17:51:31.180Z,36.40
2023-01-25T17:53:58.321Z,36.42
2023-01-25T17:56:26.088Z,36.72
2023-01-25T17:58:53.631Z,37.04
2023-01-25T18:01:26.477Z,37.13
2023-01-25T18:03:54.485Z,36.76
2023-01-25T18:06:25.215Z,37.06
2023-01-25T18:08:54.944Z,37.05
2023-01-25T18:11:25.935Z,37.43
2023-01-25T18:13:58.815Z,37.30
2023-01-25T18:16:27.706Z,37.29
2023-01-25T18:18:57.040Z,37.51
2023-01-25T18:21:26.859Z,38.13
2023-01-25T18:24:03.551Z,38.12
2023-01-25T18:26:37.164Z,38.12
2023-01-25T18:29:09.923Z,38.88
2023-01-25T18:31:37.343Z,38.40
2023-01-25T18:34:04.664Z,38.72
2023-01-25T18:36:31.696Z,38.75
2023-01-25T18:39:00.068Z,38.50
2023-01-25T18:41:27.235Z,38.98
2023-01-25T18:43:54.278Z,39.14
2023-01-25T18:46:24.201Z,38.67
2023-01-25T18:48:51.292Z,39.05
2023-01-25T18:51:18.175Z,38.74
2023-01-25T18:53:47.700Z,39.25
2023-01-25T18:56:16.392Z,39.06
2023-01-25T18:58:44.079Z,39.47
2023-01-25T19:01:20.146Z,39.91
2023-01-25T19:03:48.627Z,39.60
2023-01-25T19:06:16.515Z,40.02
2023-01-25T19:08:46.874Z,39.88
2023-01-25T19:11:16.055Z,39.94
2023-01-25T19:13:44.200Z,40.05
2023-01-25T19:16:24.371Z,40.29
2023-01-25T19:18:53.736Z,40.00
2023-01-25T19:21:26.419Z,41.42
2023-01-25T19:23:55.182Z,40.68
2023-01-25T19:26:25.582Z,40.37
2023-01-25T19:28:53.336Z,40.40
2023-01-25T19:31:25.322Z,40.86
2023-01-25T19:33:57.386Z,41.53
2023-01-25T19:36:24.464Z,41.22
2023-01-25T19:38:51.576Z,41.00
2023-01-25T19:41:21.231Z,40.85
2023-01-25T19:43:48.981Z,41.25
2023-01-25T19:46:16.981Z,41.17
2023-01-25T19:48:46.776Z,41.56
2023-01-25T19:51:26.051Z,41.55
2023-01-25T19:54:00.221Z,41.38
2023-01-25T19:56:29.441Z,41.47
2023-01-25T19:58:56.977Z,41.79
2023-01-25T20:01:29.150Z,41.21
2023-01-25T20:04:02.274Z,41.15
2023-01-25T20:06:29.414Z,41.50
2023-01-25T20:08:56.544Z,41.58
2023-01-25T20:11:26.078Z,41.87
2023-01-25T20:13:56.873Z,42.11
2023-01-25T20:16:25.002Z,41.80
2023-01-25T20:18:51.992Z,42.02
2023-01-25T20:21:21.531Z,42.71
2023-01-25T20:23:53.091Z,42.89
2023-01-25T20:26:23.272Z,42.82
2023-01-25T20:28:52.612Z,43.33
2023-01-25T20:31:25.568Z,43.14
2023-01-25T20:33:55.308Z,42.85
2023-01-25T20:36:23.760Z,43.21
2023-01-25T20:38:51.366Z,43.05
2023-01-25T20:41:19.172Z,43.52
2023-01-25T20:43:51.264Z,43.33
2023-01-25T20:46:19.714Z,43.50
2023-01-25T20:48:47.358Z,44.03
2023-01-25T20:51:17.217Z,43.44
2023-01-25T20:53:45.958Z,43.03
2023-01-25T20:56:13.937Z,44.04
2023-01-25T20:58:41.855Z,43.25
2023-01-25T21:01:17.549Z,43.77
2023-01-25T21:03:44.755Z,43.77
2023-01-25T21:06:12.439Z,43.79
2023-01-25T21:08:40.011Z,43.77
2023-01-25T21:11:07.863Z,43.84
2023-01-25T21:13:35.185Z,44.16
2023-01-25T21:16:10.216Z,44.46
2023-01-25T21:18:40.226Z,44.01
2023-01-25T21:21:11.967Z,44.23
2023-01-25T21:23:41.089Z,44.37
2023-01-25T21:26:10.774Z,44.27
2023-01-25T21:28:37.748Z,44.38
2023-01-25T21:31:12.235Z,45.38
2023-01-25T21:33:40.130Z,44.01
2023-01-25T21:36:08.764Z,43.98
2023-01-25T21:38:36.311Z,44.02
2023-01-25T21:41:05.542Z,44.52
2023-01-25T21:43:52.515Z,43.92
2023-01-25T21:46:27.129Z,44.03
2023-01-25T21:49:14.879Z,43.97
2023-01-25T21:51:49.819Z,44.26
2023-01-25T21:54:20.836Z,44.04
2023-01-25T21:56:49.551Z,43.89
2023-01-25T21:59:17.579Z,43.91
2023-01-25T22:01:45.938Z,44.32
2023-01-25T22:04:14.861Z,44.13
2023-01-25T22:06:42.225Z,44.26
2023-01-25T22:09:09.877Z,43.94
2023-01-25T22:11:37.253Z,43.73
2023-01-25T22:14:04.512Z,43.90
2023-01-25T22:16:31.664Z,44.79
2023-01-25T22:19:00.586Z,44.37
2023-01-25T22:21:33.204Z,44.46
2023-01-25T22:24:02.370Z,44.24
2023-01-25T22:26:51.680Z,44.97
2023-01-25T22:29:18.675Z,44.54
2023-01-25T22:31:45.747Z,44.73
2023-01-25T22:34:12.857Z,44.44
2023-01-25T22:36:39.732Z,45.47
2023-01-25T22:39:06.656Z,45.33
2023-01-25T22:41:37.053Z,46.02
2023-01-25T22:44:05.145Z,45.09
2023-01-25T22:46:32.291Z,45.26
2023-01-25T22:48:59.657Z,45.29
2023-01-25T22:51:29.526Z,45.01
2023-01-25T22:53:58.107Z,45.28
2023-01-25T22:56:27.712Z,45.44
2023-01-25T22:58:54.815Z,45.68
2023-01-25T23:01:24.863Z,46.14
2023-01-25T23:03:52.799Z,45.78
2023-01-25T23:06:25.488Z,45.86
2023-01-25T23:08:56.295Z,46.01
2023-01-25T23:11:25.027Z,45.65
2023-01-25T23:14:13.531Z,46.37
2023-01-25T23:16:40.475Z,46.58
2023-01-25T23:19:07.393Z,46.09
2023-01-25T23:21:35.828Z,46.00
2023-01-25T23:24:04.274Z,46.20
2023-01-25T23:26:37.786Z,46.42
2023-01-25T23:29:13.524Z,46.75
2023-01-25T23:31:40.641Z,46.23
2023-01-25T23:34:07.923Z,46.15
2023-01-25T23:36:39.297Z,46.97
2023-01-25T23:39:06.586Z,46.43
2023-01-25T23:41:37.274Z,46.09
2023-01-25T23:44:04.618Z,46.26
2023-01-25T23:46:31.737Z,47.29
2023-01-25T23:48:58.976Z,46.65
2023-01-25T23:51:26.171Z,47.32
2023-01-25T23:53:57.794Z,47.45
2023-01-25T23:56:24.839Z,46.53
2023-01-25T23:58:51.848Z,47.19
